Delaware County Regional (MIE)

 

Airport Diagram
Current Weather/Forecast (IFR Conditions)
METAR KMIE 252253Z 07013KT 2SM HZ OVC008 01/M02 A2980 RMK AO2 CIG 007V011 SLP096 I1002 T00061022
TAF

Airport Information

All Charts
General
Chart Name View
AIRPORT DIAGRAM
AIRPORT DIAGRAM
TAKEOFF MINIMUMS
ALTERNATE MINIMUMS
TAKEOFF MINIMUMS
ALTERNATE MINIMUMS
LAHSO
LAHSO

Approaches
Chart Name Download
ILS OR LOC RWY 32
RNAV (GPS) RWY 03
RNAV (GPS) RWY 14
RNAV (GPS) RWY 21
RNAV (GPS) RWY 32
VOR RWY 14
VOR RWY 21
ILS OR LOC RWY 32
RNAV (GPS) RWY 03
RNAV (GPS) RWY 14
RNAV (GPS) RWY 21
RNAV (GPS) RWY 32
VOR RWY 14
VOR RWY 21


Airport Statistics
Departures Arrivals Local
All Collected Stats since June 2016: 36 24 2
2021 Stats: 5 2 0
January Stats: 5 2 1

Inbound Traffic (Arrivals) - 0

No inbound traffic.


Outbound Traffic (Departures) - 0

No outbound traffic.


Local Traffic (Pattern) - 0

No local traffic.